Time;durP1;ratioP1;P1;durP2;ratioP2;P2;SDS_P1;SDS_P2;PMS_P1;PMS_P2;Temp;Humidity;BMP_temperature;BMP_pressure;BME280_temperature;BME280_humidity;BME280_pressure;Samples;Min_cycle;Max_cycle;Signal;HPM_P1;HPM_P2
2022/06/22 00:00:26;;;;;;;8.27;4.97;;;;;;;24.84;43.47;99316.16;4967861;28;20049;-85
2022/06/22 00:02:57;;;;;;;8.27;3.90;;;;;;;24.84;43.46;99307.19;4974441;28;20766;-85
2022/06/22 00:05:36;;;;;;;4.47;4.07;;;;;;;24.82;43.69;99299.28;4982590;28;20518;-83
2022/06/22 00:08:07;;;;;;;5.03;4.40;;;;;;;24.80;43.90;99304.13;4983498;28;20449;-83
2022/06/22 00:10:39;;;;;;;4.13;3.72;;;;;;;24.77;43.80;99301.88;4992304;28;20093;-82
2022/06/22 00:13:16;;;;;;;5.55;3.90;;;;;;;24.74;43.67;99286.09;4966749;28;20054;-83
2022/06/22 00:15:57;;;;;;;4.45;3.85;;;;;;;24.72;43.69;99293.66;4970739;28;20045;-82
2022/06/22 00:18:23;;;;;;;4.03;3.47;;;;;;;24.69;43.44;99288.69;4969835;28;20070;-82
2022/06/22 00:20:52;;;;;;;5.07;3.55;;;;;;;24.64;43.13;99281.28;4998538;28;20046;-83
2022/06/22 00:23:38;;;;;;;7.80;4.40;;;;;;;24.61;42.46;99292.63;4980657;28;20043;-83
2022/06/22 00:26:23;;;;;;;4.93;3.35;;;;;;;24.60;42.74;99293.69;4978437;28;20057;-82
2022/06/22 00:28:56;;;;;;;4.25;3.50;;;;;;;24.57;42.75;99290.63;4994702;28;20069;-83
2022/06/22 00:31:35;;;;;;;6.40;3.40;;;;;;;24.53;42.97;99295.72;4972891;28;20048;-83
2022/06/22 00:34:11;;;;;;;5.43;3.20;;;;;;;24.51;42.66;99297.84;4937994;28;20477;-81
2022/06/22 00:36:59;;;;;;;5.97;3.42;;;;;;;24.50;42.56;99292.66;4967682;28;20057;-81
2022/06/22 00:39:29;;;;;;;4.55;3.70;;;;;;;24.45;42.95;99299.63;4967358;28;20433;-81
2022/06/22 00:42:14;;;;;;;4.30;3.63;;;;;;;24.41;43.50;99305.75;4950158;28;20046;-81
2022/06/22 00:44:48;;;;;;;6.90;4.00;;;;;;;24.39;43.59;99303.25;4971468;28;20046;-81
2022/06/22 00:47:22;;;;;;;4.32;3.55;;;;;;;24.40;43.28;99310.34;4995651;28;20054;-80
2022/06/22 00:49:49;;;;;;;3.90;3.50;;;;;;;24.42;43.39;99308.19;4966185;28;20431;-83
2022/06/22 00:52:25;;;;;;;5.25;4.03;;;;;;;24.41;43.46;99297.59;4954575;28;20046;-84
2022/06/22 00:54:53;;;;;;;5.22;3.47;;;;;;;24.41;43.08;99293.00;4951478;28;20050;-83
2022/06/22 00:57:23;;;;;;;3.75;3.33;;;;;;;24.39;43.15;99284.25;4963273;28;20049;-83
2022/06/22 00:59:55;;;;;;;4.53;3.10;;;;;;;24.38;43.15;99281.81;4970164;28;20490;-82
2022/06/22 01:02:42;;;;;;;5.22;3.10;;;;;;;24.35;43.43;99280.41;4981215;28;20042;-83
2022/06/22 01:05:20;;;;;;;4.22;3.00;;;;;;;24.35;43.07;99274.13;4986866;28;22280;-83
2022/06/22 01:08:22;;;;;;;4.57;3.60;;;;;;;24.31;43.03;99276.50;4981756;28;20442;-86
2022/06/22 01:10:59;;;;;;;4.78;3.45;;;;;;;24.32;43.03;99280.84;4942649;28;20493;-83
2022/06/22 01:13:33;;;;;;;7.57;3.80;;;;;;;24.30;43.29;99271.28;4953521;28;20050;-83
2022/06/22 01:16:10;;;;;;;7.65;3.95;;;;;;;24.29;43.90;99275.91;4970922;28;20057;-83
2022/06/22 01:18:54;;;;;;;4.68;3.85;;;;;;;24.28;43.93;99282.41;4965725;28;20572;-83
2022/06/22 01:21:55;;;;;;;5.95;3.90;;;;;;;24.26;44.13;99289.97;4973738;28;20052;-83
2022/06/22 01:24:42;;;;;;;6.25;3.58;;;;;;;24.23;43.74;99280.41;4909399;28;20046;-79
2022/06/22 01:27:29;;;;;;;4.57;3.88;;;;;;;24.23;43.49;99282.31;4986089;28;20049;-79
2022/06/22 01:30:03;;;;;;;3.45;3.15;;;;;;;24.22;43.89;99278.78;4954989;28;20072;-79
2022/06/22 01:32:35;;;;;;;3.97;3.55;;;;;;;24.21;43.69;99279.81;4971771;28;20054;-79
2022/06/22 01:35:09;;;;;;;8.65;4.03;;;;;;;24.19;43.85;99268.38;4979298;28;20054;-79
2022/06/22 01:37:36;;;;;;;4.90;3.35;;;;;;;24.18;43.57;99257.78;4981715;28;20408;-79
2022/06/22 01:40:23;;;;;;;6.60;3.30;;;;;;;24.15;43.59;99267.22;4952277;28;20051;-79
2022/06/22 01:42:53;;;;;;;5.43;3.78;;;;;;;24.16;43.64;99271.56;4925788;28;20065;-79
2022/06/22 01:45:39;;;;;;;4.78;3.35;;;;;;;24.15;43.59;99263.69;4988672;28;20045;-79
2022/06/22 01:48:25;;;;;;;5.57;3.83;;;;;;;24.13;44.17;99261.19;4979672;28;20054;-79
2022/06/22 01:51:09;;;;;;;5.38;3.28;;;;;;;24.13;43.95;99272.03;4971759;28;20054;-79
2022/06/22 01:53:49;;;;;;;3.88;3.05;;;;;;;24.13;43.65;99274.75;4966988;28;20046;-79
2022/06/22 01:56:28;;;;;;;5.97;3.05;;;;;;;24.10;43.36;99277.97;4949095;28;20046;-81
2022/06/22 01:59:27;;;;;;;5.72;3.30;;;;;;;24.08;43.68;99271.13;4970679;28;20386;-79
2022/06/22 02:01:59;;;;;;;5.07;3.25;;;;;;;24.05;43.51;99275.94;4952502;28;20049;-79
2022/06/22 02:04:29;;;;;;;;;;;;;;;24.01;43.00;99272.06;4963674;28;20050;-79
2022/06/22 02:10:41;;;;;;;4.90;3.08;;;;;;;23.98;43.09;99280.66;4930172;28;20548;-80
2022/06/22 02:13:22;;;;;;;5.20;3.38;;;;;;;23.97;42.04;99278.22;4969036;28;20053;-79
2022/06/22 02:16:15;;;;;;;3.28;2.90;;;;;;;23.95;41.69;99283.84;4947170;28;20494;-81
2022/06/22 02:19:09;;;;;;;5.93;3.80;;;;;;;23.93;42.29;99287.88;4993534;28;20047;-79
2022/06/22 02:21:52;;;;;;;4.57;2.90;;;;;;;23.91;42.77;99287.28;4942403;28;20044;-79
2022/06/22 02:24:29;;;;;;;4.13;3.20;;;;;;;23.89;43.14;99295.66;4985291;28;20046;-79
2022/06/22 02:27:08;;;;;;;5.03;3.00;;;;;;;23.85;43.58;99301.78;4967381;28;20058;-79
2022/06/22 02:29:52;;;;;;;3.25;2.75;;;;;;;23.85;43.18;99313.44;4968784;28;20545;-83
2022/06/22 02:32:30;;;;;;;3.72;3.28;;;;;;;23.83;43.63;99304.72;4986049;28;20409;-83
2022/06/22 02:34:57;;;;;;;5.70;3.17;;;;;;;23.81;43.18;99306.84;4973151;28;20429;-83
2022/06/22 02:37:26;;;;;;;3.80;2.80;;;;;;;23.78;42.88;99301.88;4964983;28;20046;-83
2022/06/22 02:39:57;;;;;;;3.95;2.80;;;;;;;23.75;43.64;99294.22;4978791;28;20045;-83
2022/06/22 02:45:12;;;;;;;4.80;3.25;;;;;;;23.70;43.30;99299.50;4967055;28;20046;-83
2022/06/22 02:47:57;;;;;;;3.83;3.13;;;;;;;23.66;43.53;99293.75;4966009;28;20046;-83
2022/06/22 02:50:38;;;;;;;4.78;3.00;;;;;;;23.66;43.35;99280.19;4966708;28;20076;-83
2022/06/22 02:53:28;;;;;;;3.80;3.30;;;;;;;23.62;43.44;99270.84;4979784;28;20376;-83
2022/06/22 02:55:55;;;;;;;4.70;3.08;;;;;;;23.62;43.40;99262.72;4953470;28;20046;-82
2022/06/22 02:58:34;;;;;;;4.75;3.00;;;;;;;23.59;43.06;99246.94;4967048;28;20117;-84
2022/06/22 03:01:05;;;;;;;4.63;3.22;;;;;;;23.55;43.14;99241.16;4985053;28;20046;-83
2022/06/22 03:03:34;;;;;;;3.83;3.15;;;;;;;23.48;43.05;99247.75;4985468;28;20052;-83
2022/06/22 03:06:01;;;;;;;5.00;3.22;;;;;;;23.49;43.25;99250.22;4978267;28;20077;-85
2022/06/22 03:08:29;;;;;;;5.18;3.75;;;;;;;23.36;43.63;99245.84;4966856;28;20501;-85
2022/06/22 03:11:00;;;;;;;6.65;3.60;;;;;;;23.42;44.04;99254.94;4963334;28;20054;-85
2022/06/22 03:13:37;;;;;;;4.28;3.33;;;;;;;23.43;44.08;99258.47;4970940;28;20042;-85
2022/06/22 03:25:14;;;;;;;4.15;2.70;;;;;;;23.39;42.50;99252.69;4987113;28;20034;-85
2022/06/22 03:27:44;;;;;;;3.88;2.63;;;;;;;23.35;42.41;99259.63;4980971;28;20073;-90
2022/06/22 03:30:23;;;;;;;2.70;2.50;;;;;;;23.34;42.79;99266.13;4950163;28;20046;-91
2022/06/22 03:32:58;;;;;;;2.50;2.28;;;;;;;23.29;42.35;99272.22;4927038;28;20058;-90
2022/06/22 03:35:43;;;;;;;4.53;2.78;;;;;;;23.28;42.05;99284.13;4979235;28;20042;-90
2022/06/22 03:38:17;;;;;;;5.00;2.70;;;;;;;23.31;42.39;99288.25;4952994;28;20061;-85
2022/06/22 03:40:51;;;;;;;5.45;3.28;;;;;;;23.28;41.91;99292.25;4960554;28;20042;-85
2022/06/22 03:43:32;;;;;;;4.60;2.80;;;;;;;23.28;42.16;99288.69;4963251;28;20556;-85
2022/06/22 03:50:26;;;;;;;3.78;2.88;;;;;;;23.46;41.56;99283.22;4972517;28;20031;-86
2022/06/22 03:53:06;;;;;;;;;;;;;;;23.46;41.55;99285.09;4956656;28;20043;-86
2022/06/22 03:55:35;;;;;;;4.25;2.45;;;;;;;23.45;41.42;99286.97;4970639;28;19922;-86
2022/06/22 03:58:03;;;;;;;2.70;2.47;;;;;;;23.42;40.94;99275.78;4967945;28;20054;-86
2022/06/22 04:00:32;;;;;;;2.45;2.25;;;;;;;23.37;40.95;99274.59;4984342;28;20062;-83
2022/06/22 04:02:59;;;;;;;6.38;2.50;;;;;;;23.29;41.47;99279.53;4972656;28;20042;-80
2022/06/22 04:05:29;;;;;;;3.47;2.35;;;;;;;23.24;41.22;99279.41;4982414;28;20088;-80
2022/06/22 04:07:56;;;;;;;3.85;2.40;;;;;;;23.19;41.49;99290.94;4985055;28;20109;-83
2022/06/22 04:10:58;;;;;;;3.42;2.20;;;;;;;23.06;41.04;99291.13;4966783;28;20054;-83
2022/06/22 04:13:32;;;;;;;2.78;2.25;;;;;;;23.13;41.14;99300.00;4925408;28;20784;-82
2022/06/22 04:16:09;;;;;;;2.50;2.25;;;;;;;23.15;41.61;99297.84;4986612;28;20063;-85
2022/06/22 04:18:47;;;;;;;5.32;2.10;;;;;;;23.18;41.42;99305.53;4972715;28;20041;-84
2022/06/22 04:21:19;;;;;;;4.43;2.40;;;;;;;23.19;41.01;99305.28;4953457;28;20515;-84
2022/06/22 04:23:51;;;;;;;5.90;2.55;;;;;;;23.24;40.75;99306.50;4975634;28;20045;-80
2022/06/22 04:26:24;;;;;;;3.40;2.67;;;;;;;23.26;40.73;99305.19;4982705;28;20042;-83
2022/06/22 04:29:01;;;;;;;3.00;2.40;;;;;;;23.28;40.79;99305.81;4956425;28;20444;-82
2022/06/22 04:31:32;;;;;;;6.18;2.80;;;;;;;23.32;41.50;99295.31;4955683;28;20042;-80
2022/06/22 04:34:21;;;;;;;9.77;3.95;;;;;;;23.34;41.86;99302.16;4997361;28;20057;-81
2022/06/22 04:36:55;;;;;;;4.90;2.75;;;;;;;23.34;42.32;99295.91;4924720;28;20124;-81
2022/06/22 04:39:33;;;;;;;6.03;2.72;;;;;;;23.35;41.88;99298.38;4950915;28;20053;-82
2022/06/22 04:42:51;;;;;;;3.95;2.60;;;;;;;23.34;41.96;99296.75;4997760;28;20073;-81
2022/06/22 04:45:34;;;;;;;4.03;2.65;;;;;;;23.36;41.82;99304.66;4956271;28;20045;-81
2022/06/22 04:48:05;;;;;;;4.32;2.92;;;;;;;23.37;42.33;99309.81;4938470;28;20452;-81
2022/06/22 04:50:35;;;;;;;4.50;2.90;;;;;;;23.34;41.97;99313.00;4969227;28;20049;-81
2022/06/22 04:53:03;;;;;;;5.20;2.75;;;;;;;23.28;42.59;99313.06;4963164;28;20053;-81
2022/06/22 04:55:38;;;;;;;4.05;2.80;;;;;;;23.26;43.57;99315.22;4980893;28;20577;-81
2022/06/22 04:58:14;;;;;;;6.57;2.70;;;;;;;23.26;43.97;99323.34;4953597;28;20101;-81
2022/06/22 05:00:42;;;;;;;2.70;2.50;;;;;;;23.30;44.06;99327.22;4971455;28;20506;-81
2022/06/22 05:03:13;;;;;;;6.63;2.90;;;;;;;23.35;44.14;99346.31;4979099;28;20050;-81
2022/06/22 05:05:40;;;;;;;3.72;2.75;;;;;;;23.38;43.82;99330.44;4966528;28;20050;-81
2022/06/22 05:08:23;;;;;;;5.38;2.42;;;;;;;23.40;42.86;99335.63;4960055;28;20509;-81
2022/06/22 05:11:01;;;;;;;6.07;2.90;;;;;;;23.42;43.20;99352.47;4970599;28;20049;-91
2022/06/22 05:13:39;;;;;;;2.80;2.35;;;;;;;23.43;42.97;99356.81;4992858;28;20042;-91
2022/06/22 05:16:11;;;;;;;3.50;2.72;;;;;;;23.45;42.45;99362.03;4989215;28;20038;-90
2022/06/22 05:18:44;;;;;;;5.63;2.55;;;;;;;23.46;42.65;99356.38;4964136;28;20513;-90
2022/06/22 05:21:19;;;;;;;2.80;2.50;;;;;;;23.50;43.87;99356.72;4972798;28;20116;-91
2022/06/22 05:23:52;;;;;;;4.70;2.40;;;;;;;23.50;43.16;99364.88;4994109;28;20095;-91
2022/06/22 05:26:21;;;;;;;3.30;2.45;;;;;;;23.51;42.76;99358.38;4964906;28;20050;-89
2022/06/22 05:28:58;;;;;;;2.72;2.30;;;;;;;23.55;43.88;99362.28;4955346;28;20050;-90
2022/06/22 05:31:30;;;;;;;3.08;2.35;;;;;;;23.56;43.67;99359.34;4940533;28;20038;-90
2022/06/22 05:34:05;;;;;;;3.00;2.70;;;;;;;23.57;43.65;99357.47;4986423;28;20096;-91
2022/06/22 05:36:36;;;;;;;3.67;2.78;;;;;;;23.59;43.17;99349.94;4983389;28;20049;-90
2022/06/22 05:39:02;;;;;;;2.97;2.40;;;;;;;23.60;43.56;99354.28;4965716;28;20129;-90
2022/06/22 05:41:31;;;;;;;3.78;2.63;;;;;;;23.62;44.25;99357.59;4982977;28;20533;-91
2022/06/22 05:44:01;;;;;;;2.83;2.50;;;;;;;23.61;43.90;99354.06;4957647;28;20104;-90
2022/06/22 05:46:28;;;;;;;3.75;2.42;;;;;;;23.63;44.23;99348.38;4981612;28;20112;-90
2022/06/22 05:48:56;;;;;;;4.03;2.60;;;;;;;23.67;44.30;99351.47;4967146;28;20072;-91
2022/06/22 05:51:37;;;;;;;6.60;2.88;;;;;;;23.63;44.47;99361.94;4952484;28;20038;-90
2022/06/22 05:54:08;;;;;;;5.13;2.83;;;;;;;23.60;43.08;99360.53;4941466;28;20409;-86
2022/06/22 05:56:43;;;;;;;6.05;2.42;;;;;;;23.56;40.95;99359.34;4968504;28;20052;-86
2022/06/22 06:00:01;;;;;;;4.38;2.15;;;;;;;23.48;41.79;99356.13;4987717;28;20042;-86
2022/06/22 06:03:03;;;;;;;9.23;3.13;;;;;;;23.42;39.79;99357.88;4910915;28;20037;-87
2022/06/22 06:05:41;;;;;;;4.47;2.50;;;;;;;23.37;39.95;99364.00;4950340;28;20050;-86
2022/06/22 06:08:19;;;;;;;6.05;2.80;;;;;;;23.36;40.72;99358.84;4983629;28;20045;-86
2022/06/22 06:10:46;;;;;;;4.55;2.92;;;;;;;23.35;40.90;99357.16;4937427;28;20042;-85
2022/06/22 06:13:24;;;;;;;5.00;3.00;;;;;;;23.38;39.03;99354.84;4970957;28;20085;-86
2022/06/22 06:15:54;;;;;;;3.40;2.38;;;;;;;23.38;39.55;99346.69;4950932;28;20391;-86
2022/06/22 06:18:25;;;;;;;2.70;2.00;;;;;;;23.48;39.17;99348.81;4987765;28;20401;-86
2022/06/22 06:21:01;;;;;;;5.70;2.05;;;;;;;23.47;38.78;99352.59;4970353;28;20121;-90
2022/06/22 06:23:40;;;;;;;5.38;2.33;;;;;;;23.45;37.85;99362.84;4987755;28;20054;-91
2022/06/22 06:29:08;;;;;;;4.53;2.13;;;;;;;23.65;37.91;99365.25;4958260;28;20054;-91
2022/06/22 06:31:54;;;;;;;4.22;2.42;;;;;;;23.55;38.11;99362.28;4978628;28;20497;-81
2022/06/22 06:34:26;;;;;;;5.57;2.15;;;;;;;23.60;38.39;99359.69;4981279;28;20125;-81
2022/06/22 06:37:01;;;;;;;3.75;2.40;;;;;;;23.58;38.15;99370.78;4983932;28;20038;-81
2022/06/22 06:39:30;;;;;;;2.20;2.00;;;;;;;23.64;38.36;99366.31;4980234;28;20064;-81
2022/06/22 06:42:05;;;;;;;2.83;2.33;;;;;;;23.72;37.99;99363.31;4971432;28;20053;-81
2022/06/22 06:44:37;;;;;;;4.13;2.15;;;;;;;23.61;37.86;99377.63;4963644;28;20134;-82
2022/06/22 06:47:11;;;;;;;4.47;2.40;;;;;;;23.68;38.22;99374.81;4968103;28;20046;-82
2022/06/22 06:50:21;;;;;;;4.78;2.25;;;;;;;23.70;38.27;99383.53;4963147;28;20041;-90
2022/06/22 06:53:20;;;;;;;4.30;2.30;;;;;;;23.78;38.35;99381.34;4922742;28;20275;-91
2022/06/22 06:55:52;;;;;;;5.45;2.42;;;;;;;23.85;37.93;99373.09;4906433;28;20044;-90
2022/06/22 06:58:35;;;;;;;5.75;2.38;;;;;;;23.87;37.80;99375.59;4967833;28;20632;-90
2022/06/22 07:01:03;;;;;;;5.63;2.30;;;;;;;23.94;38.41;99371.72;4979168;28;20050;-90
2022/06/22 07:03:35;;;;;;;2.30;2.08;;;;;;;24.00;38.03;99375.38;4983476;28;20374;-90
2022/06/22 07:06:02;;;;;;;3.55;2.17;;;;;;;24.03;37.81;99372.19;4979292;28;20060;-90
2022/06/22 07:08:33;;;;;;;5.10;2.25;;;;;;;24.07;37.52;99372.53;4967640;28;20069;-90
2022/06/22 07:11:18;;;;;;;3.05;2.35;;;;;;;24.01;37.41;99356.13;4978575;28;20045;-82
2022/06/22 07:13:46;;;;;;;3.22;2.30;;;;;;;24.09;37.62;99356.84;4952380;28;20553;-82
2022/06/22 07:16:15;;;;;;;4.15;2.40;;;;;;;24.02;37.38;99354.25;4979454;28;20564;-81
2022/06/22 07:18:44;;;;;;;9.18;2.30;;;;;;;24.05;37.33;99357.31;4969417;28;20232;-81
2022/06/22 07:21:19;;;;;;;6.05;2.35;;;;;;;24.12;37.15;99362.63;4968588;28;20069;-81
2022/06/22 07:23:59;;;;;;;2.47;2.05;;;;;;;24.12;36.97;99356.38;4925921;28;22756;-83
2022/06/22 07:26:36;;;;;;;3.38;2.20;;;;;;;24.23;37.19;99350.94;4907375;28;20412;-82
2022/06/22 07:29:09;;;;;;;5.20;2.20;;;;;;;24.19;36.69;99351.66;4921162;28;20066;-82
2022/06/22 07:31:50;;;;;;;4.25;2.60;;;;;;;24.25;37.28;99351.53;4913742;28;20050;-82
2022/06/22 07:34:27;;;;;;;4.20;1.92;;;;;;;24.15;36.85;99345.06;4863224;28;20062;-83
2022/06/22 07:36:57;;;;;;;2.88;2.15;;;;;;;24.29;36.95;99348.34;4941825;28;20043;-82
2022/06/22 07:39:29;;;;;;;5.25;2.25;;;;;;;24.31;36.97;99368.75;4923212;28;20142;-82
2022/06/22 07:41:56;;;;;;;3.03;2.10;;;;;;;24.34;36.81;99373.69;4922249;28;20528;-82
2022/06/22 07:44:30;;;;;;;4.30;2.03;;;;;;;24.40;37.22;99385.50;4942381;28;20039;-82
2022/06/22 07:47:07;;;;;;;4.55;2.33;;;;;;;24.41;38.01;99382.56;4910823;28;20055;-82
2022/06/22 07:49:39;;;;;;;6.10;2.40;;;;;;;24.40;38.23;99380.91;4910727;28;20055;-83
2022/06/22 07:52:10;;;;;;;3.80;2.10;;;;;;;24.45;38.30;99389.19;4893697;28;20411;-82
2022/06/22 07:54:44;;;;;;;7.63;2.55;;;;;;;24.46;38.75;99395.44;4928736;28;20041;-82
2022/06/22 07:57:16;;;;;;;3.10;2.10;;;;;;;24.56;38.90;99389.41;4961599;28;20577;-82
2022/06/22 07:59:53;;;;;;;5.20;2.47;;;;;;;24.55;38.98;99385.88;4965822;28;20058;-82
2022/06/22 08:02:23;;;;;;;2.28;1.90;;;;;;;24.62;38.71;99380.31;4993153;28;20048;-82
2022/06/22 08:05:16;;;;;;;4.07;2.38;;;;;;;24.60;39.49;99388.72;4964876;28;20516;-83
2022/06/22 08:08:01;;;;;;;2.72;2.47;;;;;;;24.66;39.52;99374.16;4949515;28;20501;-85
2022/06/22 08:10:40;;;;;;;4.50;2.40;;;;;;;24.68;39.95;99382.91;4981140;28;20046;-86
2022/06/22 08:13:08;;;;;;;3.25;2.60;;;;;;;24.81;39.70;99378.28;4952628;28;20037;-86
2022/06/22 08:15:39;;;;;;;3.35;2.22;;;;;;;24.79;39.99;99380.41;4996411;28;20050;-86
2022/06/22 08:18:07;;;;;;;4.60;2.25;;;;;;;24.86;40.18;99381.91;4965761;28;20068;-86
2022/06/22 08:20:37;;;;;;;3.38;2.22;;;;;;;24.85;38.86;99382.97;5005644;28;20041;-85
2022/06/22 08:23:06;;;;;;;5.40;2.65;;;;;;;24.87;40.65;99377.31;5003130;28;20120;-85
2022/06/22 08:26:27;;;;;;;4.90;2.38;;;;;;;24.85;40.92;99385.69;5001238;28;20041;-86
2022/06/22 08:28:54;;;;;;;2.22;2.13;;;;;;;25.00;39.75;99378.91;4958892;28;20136;-86
2022/06/22 08:31:21;;;;;;;3.17;2.50;;;;;;;25.02;39.91;99376.78;4984152;28;20057;-90
2022/06/22 08:33:53;;;;;;;5.40;2.67;;;;;;;25.03;40.49;99370.28;4985056;28;20037;-90
2022/06/22 08:36:36;;;;;;;3.55;2.30;;;;;;;24.95;40.54;99374.22;4956045;28;20128;-91
2022/06/22 08:39:21;;;;;;;5.82;2.90;;;;;;;25.03;40.21;99368.38;4985830;28;20042;-90
2022/06/22 08:42:12;;;;;;;4.45;2.75;;;;;;;25.00;39.86;99371.59;4952036;28;20116;-90
2022/06/22 08:44:53;;;;;;;2.53;2.33;;;;;;;25.04;39.92;99372.78;4957830;28;20513;-90
2022/06/22 08:47:30;;;;;;;4.55;2.75;;;;;;;25.07;40.44;99363.31;4955726;28;20042;-91
2022/06/22 08:50:15;;;;;;;2.90;2.70;;;;;;;25.18;40.39;99358.94;4970325;28;20128;-88
2022/06/22 08:53:12;;;;;;;2.75;2.25;;;;;;;25.17;40.97;99352.66;4938642;28;20137;-90
2022/06/22 08:55:45;;;;;;;6.32;2.90;;;;;;;25.20;41.05;99357.63;4880002;28;20064;-90
2022/06/22 08:58:31;;;;;;;4.13;2.88;;;;;;;25.18;40.74;99359.75;4983293;28;20037;-90
2022/06/22 09:01:10;;;;;;;5.68;2.65;;;;;;;25.18;41.32;99370.59;4949356;28;20050;-89
2022/06/22 09:04:06;;;;;;;7.55;3.05;;;;;;;25.15;41.01;99368.34;4963278;28;20371;-88
2022/06/22 09:06:48;;;;;;;4.13;2.85;;;;;;;25.16;40.44;99358.31;4926929;28;20042;-90
2022/06/22 09:09:35;;;;;;;4.65;2.85;;;;;;;25.08;40.96;99363.06;4970868;28;20057;-90
2022/06/22 09:12:39;;;;;;;3.53;2.40;;;;;;;25.02;41.04;99363.22;4964436;28;20100;-90
2022/06/22 09:15:07;;;;;;;5.38;2.90;;;;;;;25.08;41.03;99359.50;4981578;28;20042;-86
2022/06/22 09:17:39;;;;;;;9.35;3.15;;;;;;;25.10;41.20;99363.63;4994102;28;20397;-86
2022/06/22 09:20:24;;;;;;;6.28;3.05;;;;;;;25.05;41.22;99366.25;4982226;28;20410;-86
2022/06/22 09:22:56;;;;;;;6.32;3.00;;;;;;;25.06;41.19;99375.22;5000551;28;20050;-86
2022/06/22 09:25:30;;;;;;;;;;;;;;;24.98;41.66;99372.91;4996804;28;20038;-86
2022/06/22 09:28:04;;;;;;;5.47;2.60;;;;;;;25.09;41.46;99380.19;4956856;28;20270;-86
2022/06/22 09:30:54;;;;;;;9.00;3.20;;;;;;;25.11;41.91;99378.03;4984035;28;20398;-86
2022/06/22 09:33:43;;;;;;;5.35;2.67;;;;;;;25.15;41.86;99381.13;4953848;28;20495;-86
2022/06/22 09:36:22;;;;;;;4.80;2.80;;;;;;;25.21;41.54;99380.16;4954907;28;20053;-86
2022/06/22 09:39:08;;;;;;;6.38;2.80;;;;;;;25.18;41.26;99373.31;4961995;28;20053;-90
2022/06/22 09:41:45;;;;;;;3.10;2.60;;;;;;;25.22;40.82;99369.06;4937646;28;20050;-82
2022/06/22 09:44:33;;;;;;;3.78;3.13;;;;;;;25.16;40.86;99372.75;4996499;28;20409;-81
2022/06/22 09:47:25;;;;;;;6.32;2.80;;;;;;;25.22;41.02;99376.41;4982507;28;20065;-82
2022/06/22 09:50:01;;;;;;;6.00;2.85;;;;;;;25.24;41.47;99366.09;5002605;28;20053;-81
2022/06/22 09:52:51;;;;;;;4.70;2.90;;;;;;;25.21;41.74;99369.31;4952802;28;20042;-82
2022/06/22 09:59:08;;;;;;;5.03;2.83;;;;;;;25.30;41.47;99367.84;4920849;28;20132;-81
2022/06/22 10:02:12;;;;;;;5.90;2.65;;;;;;;25.31;41.75;99364.88;4924568;28;20359;-81
2022/06/22 10:04:45;;;;;;;3.17;2.70;;;;;;;25.37;41.40;99365.81;4919215;28;20565;-81
2022/06/22 10:07:37;;;;;;;5.68;2.95;;;;;;;25.31;41.02;99367.59;4962295;28;20038;-81
2022/06/22 10:10:49;;;;;;;6.05;3.15;;;;;;;25.32;41.33;99369.25;4999440;28;20084;-82
2022/06/22 10:13:38;;;;;;;9.95;3.13;;;;;;;25.33;40.60;99372.78;4903385;28;20045;-86
2022/06/22 10:16:31;;;;;;;6.25;3.17;;;;;;;25.31;40.04;99377.66;4978312;28;20405;-85
2022/06/22 10:19:29;;;;;;;5.63;2.90;;;;;;;25.28;41.11;99376.22;4937619;28;20074;-86
2022/06/22 10:22:52;;;;;;;7.13;2.78;;;;;;;25.30;40.56;99376.81;4954863;28;20046;-86
2022/06/22 10:25:37;;;;;;;4.57;3.60;;;;;;;25.44;40.43;99371.94;4936491;28;20053;-85
2022/06/22 10:28:34;;;;;;;3.40;2.97;;;;;;;25.43;40.96;99377.59;4953717;28;20401;-86
2022/06/22 10:31:37;;;;;;;5.68;3.38;;;;;;;25.48;39.92;99375.78;4958244;28;20065;-86
2022/06/22 10:34:13;;;;;;;4.20;3.30;;;;;;;25.50;39.18;99367.41;4984512;28;20052;-86
2022/06/22 10:36:56;;;;;;;6.60;3.17;;;;;;;25.52;38.36;99368.81;4980593;28;20482;-86
2022/06/22 10:39:25;;;;;;;;;;;;;;;25.52;39.90;99374.25;4938668;28;20490;-85
2022/06/22 10:45:19;;;;;;;7.07;3.10;;;;;;;25.69;39.43;99373.41;4963766;28;20100;-87
2022/06/22 10:48:05;;;;;;;4.40;3.30;;;;;;;25.74;39.63;99371.59;4977092;28;20626;-86
2022/06/22 10:51:08;;;;;;;4.88;3.17;;;;;;;25.74;39.46;99378.94;4970607;28;20052;-86
2022/06/22 10:54:12;;;;;;;6.70;3.13;;;;;;;25.79;39.49;99376.31;4947559;28;20049;-86
2022/06/22 10:57:01;;;;;;;6.75;3.50;;;;;;;25.81;40.37;99376.06;4969909;28;20050;-86
2022/06/22 10:59:39;;;;;;;4.57;3.63;;;;;;;25.84;40.78;99378.31;4984701;28;20051;-86
2022/06/22 11:02:35;;;;;;;4.95;3.72;;;;;;;25.91;40.91;99377.09;4944429;28;20077;-86
2022/06/22 11:05:06;;;;;;;5.15;3.30;;;;;;;25.95;40.70;99380.97;4980085;28;20057;-86
2022/06/22 11:07:45;;;;;;;6.13;4.07;;;;;;;25.86;41.15;99384.34;4986267;28;20050;-86
2022/06/22 11:10:32;;;;;;;3.17;2.95;;;;;;;25.89;41.16;99378.41;4965036;28;20066;-86
2022/06/22 11:13:17;;;;;;;5.93;3.35;;;;;;;25.89;41.95;99386.56;4981048;28;20129;-90
2022/06/22 11:16:00;;;;;;;8.32;3.78;;;;;;;25.88;43.51;99390.38;4992840;28;20053;-90
2022/06/22 11:19:04;;;;;;;7.93;4.20;;;;;;;25.88;44.17;99387.66;4978871;28;20077;-89
2022/06/22 11:21:37;;;;;;;8.15;4.72;;;;;;;25.92;43.79;99392.34;4993122;28;20048;-90
2022/06/22 11:24:33;;;;;;;6.03;4.30;;;;;;;25.92;44.39;99403.22;4979839;28;20053;-90
2022/06/22 11:33:35;;;;;;;6.22;4.20;;;;;;;25.77;46.42;99422.81;4952158;28;20054;-90
2022/06/22 11:36:24;;;;;;;7.65;5.03;;;;;;;25.76;45.24;99421.16;4947439;28;20050;-81
2022/06/22 11:39:12;;;;;;;6.93;4.47;;;;;;;25.72;45.43;99420.00;4953028;28;20120;-82
2022/06/22 11:41:55;;;;;;;6.65;4.40;;;;;;;25.61;46.89;99423.59;4985038;28;20048;-81
2022/06/22 11:44:22;;;;;;;;;;;;;;;25.54;46.74;99426.47;4977164;28;20065;-81
2022/06/22 11:46:52;;;;;;;6.88;4.55;;;;;;;25.65;45.60;99424.78;4980299;28;20394;-81
2022/06/22 11:49:41;;;;;;;7.28;4.57;;;;;;;25.55;46.36;99421.88;4976718;28;20042;-81
2022/06/22 11:52:19;;;;;;;7.85;4.22;;;;;;;25.48;46.18;99424.72;4919649;28;20046;-80
2022/06/22 11:55:03;;;;;;;8.52;4.40;;;;;;;25.41;46.13;99428.66;4982398;28;20050;-81
2022/06/22 11:57:36;;;;;;;6.90;4.72;;;;;;;25.39;46.14;99430.78;4969363;28;20038;-80
2022/06/22 12:00:43;;;;;;;5.97;4.68;;;;;;;25.34;46.80;99432.34;4974062;28;20055;-81
2022/06/22 12:03:57;;;;;;;5.80;5.10;;;;;;;25.27;46.66;99433.56;4941564;28;20042;-81
2022/06/22 12:06:32;;;;;;;6.82;5.97;;;;;;;25.32;46.04;99436.38;4905556;28;20050;-82
2022/06/22 12:09:31;;;;;;;8.70;6.40;;;;;;;25.29;46.70;99437.69;4980393;28;20054;-81
2022/06/22 12:12:29;;;;;;;7.15;5.75;;;;;;;25.33;46.27;99432.59;4969399;28;20767;-81
2022/06/22 12:15:32;;;;;;;7.85;6.20;;;;;;;25.30;46.81;99438.50;4974809;28;20506;-81
2022/06/22 12:18:29;;;;;;;8.85;6.30;;;;;;;25.29;46.74;99434.97;4955050;28;20406;-89
2022/06/22 12:21:36;;;;;;;6.60;5.65;;;;;;;25.26;47.27;99430.00;4954119;28;20070;-85
2022/06/22 12:24:15;;;;;;;8.32;6.18;;;;;;;25.35;47.15;99430.47;4957550;28;20387;-88
2022/06/22 12:26:58;;;;;;;9.30;6.70;;;;;;;25.40;47.20;99427.84;4968569;28;20576;-83
2022/06/22 12:29:40;;;;;;;9.45;6.50;;;;;;;25.36;47.69;99428.56;4957034;28;20046;-83
2022/06/22 12:32:17;;;;;;;9.23;7.30;;;;;;;25.37;47.90;99431.03;4963112;28;20548;-82
2022/06/22 12:34:53;;;;;;;9.60;6.95;;;;;;;25.39;48.18;99425.34;4980530;28;20050;-81
2022/06/22 12:37:26;;;;;;;10.18;7.57;;;;;;;25.45;48.40;99427.94;4978578;28;20149;-81
2022/06/22 12:39:58;;;;;;;9.23;7.47;;;;;;;25.46;49.24;99426.03;4971046;28;20050;-81
2022/06/22 12:42:37;;;;;;;9.05;7.03;;;;;;;25.53;48.66;99426.72;4981593;28;20038;-81
2022/06/22 12:45:35;;;;;;;9.57;7.72;;;;;;;25.49;50.66;99422.81;5001082;28;20046;-81
2022/06/22 12:48:07;;;;;;;7.88;6.78;;;;;;;25.55;49.19;99422.69;4988542;28;20057;-81
2022/06/22 12:50:36;;;;;;;10.82;7.82;;;;;;;25.61;49.66;99412.72;4999527;28;20391;-81
2022/06/22 12:53:07;;;;;;;10.40;7.38;;;;;;;25.62;49.66;99416.25;4998317;28;20100;-81
2022/06/22 12:55:40;;;;;;;10.95;7.50;;;;;;;25.65;50.80;99411.16;4979536;28;20498;-82
2022/06/22 12:58:22;;;;;;;11.18;7.50;;;;;;;25.62;51.46;99419.81;4985267;28;20042;-82
2022/06/22 13:00:49;;;;;;;8.63;7.70;;;;;;;25.73;50.02;99418.91;4972731;28;20576;-83
2022/06/22 13:03:23;;;;;;;9.15;6.90;;;;;;;25.69;50.29;99419.66;4956248;28;20202;-82
2022/06/22 13:05:50;;;;;;;12.65;7.68;;;;;;;25.73;50.25;99418.91;4991427;28;20042;-82